Time;durP1;ratioP1;P1;durP2;ratioP2;P2;SDS_P1;SDS_P2;PMS_P1;PMS_P2;Temp;Humidity;BMP_temperature;BMP_pressure;BME280_temperature;BME280_humidity;BME280_pressure;Samples;Min_cycle;Max_cycle;Signal;HPM_P1;HPM_P2
2022/10/31 21:12:48;;;;;;;5.07;4.87;;;22.10;99.90;;;;;;5110080;27;20548;-66
2022/10/31 21:15:17;;;;;;;5.03;4.73;;;22.10;99.90;;;;;;5091636;28;20586;-65
2022/10/31 21:17:44;;;;;;;6.23;5.83;;;22.10;99.90;;;;;;5089291;28;20495;-65
2022/10/31 21:20:11;;;;;;;5.10;4.90;;;22.30;99.90;;;;;;5088810;28;20443;-64
2022/10/31 21:22:39;;;;;;;6.47;6.07;;;22.30;99.90;;;;;;5088971;28;20462;-68
2022/10/31 21:25:06;;;;;;;6.73;6.27;;;22.40;99.90;;;;;;5117122;22;20485;-66
2022/10/31 21:27:33;;;;;;;5.67;5.27;;;22.50;99.90;;;;;;5059080;28;20810;-66
2022/10/31 21:30:03;;;;;;;5.90;5.30;;;22.60;99.90;;;;;;5047868;28;20450;-66
2022/10/31 21:32:30;;;;;;;5.83;5.63;;;22.70;99.90;;;;;;5029011;28;20481;-63
2022/10/31 21:34:59;;;;;;;5.73;5.43;;;22.80;99.90;;;;;;5029108;28;20888;-63
2022/10/31 21:37:26;;;;;;;5.67;5.40;;;22.80;99.90;;;;;;5029707;28;20448;-68
2022/10/31 21:39:52;;;;;;;5.13;4.80;;;22.90;99.90;;;;;;5042507;28;20539;-66
2022/10/31 21:42:22;;;;;;;6.17;5.87;;;22.80;99.90;;;;;;5048464;28;20448;-66
2022/10/31 21:44:49;;;;;;;5.10;4.90;;;22.90;99.90;;;;;;5048502;28;20460;-67
2022/10/31 21:47:18;;;;;;;5.90;5.40;;;22.80;99.90;;;;;;5048703;28;20869;-66
2022/10/31 21:49:45;;;;;;;5.67;5.27;;;22.90;99.90;;;;;;5048084;28;20448;-67
2022/10/31 21:52:11;;;;;;;5.10;4.83;;;22.80;99.90;;;;;;5048331;28;20480;-66
2022/10/31 21:54:37;;;;;;;6.00;5.50;;;22.70;99.90;;;;;;5048391;28;20495;-67
2022/10/31 21:57:04;;;;;;;5.70;5.30;;;22.70;99.90;;;;;;5048299;28;20440;-67
2022/10/31 21:59:31;;;;;;;5.53;5.23;;;22.60;99.90;;;;;;5047958;28;20277;-68
2022/10/31 22:01:59;;;;;;;5.77;5.40;;;22.60;99.90;;;;;;5047906;28;20528;-66
2022/10/31 22:04:27;;;;;;;5.47;5.13;;;22.50;99.90;;;;;;5048163;28;20844;-67
2022/10/31 22:06:54;;;;;;;4.63;4.30;;;22.40;99.90;;;;;;5048050;28;20543;-67
2022/10/31 22:09:22;;;;;;;6.47;5.97;;;22.40;99.90;;;;;;5047832;28;20535;-67
2022/10/31 22:11:49;;;;;;;6.37;5.17;;;22.40;99.90;;;;;;5047617;28;20480;-67
2022/10/31 22:14:16;;;;;;;5.80;5.30;;;22.30;99.90;;;;;;5048061;28;20874;-67
2022/10/31 22:16:43;;;;;;;6.27;5.37;;;22.30;99.90;;;;;;5047948;28;20790;-67
2022/10/31 22:19:12;;;;;;;6.27;5.87;;;22.30;99.90;;;;;;5047776;28;20945;-67
2022/10/31 22:21:42;;;;;;;4.97;4.77;;;22.20;99.90;;;;;;5047567;28;20440;-67
2022/10/31 22:24:09;;;;;;;5.63;5.43;;;22.20;99.90;;;;;;5034531;28;20444;-67
2022/10/31 22:26:36;;;;;;;7.07;6.63;;;22.20;99.90;;;;;;5034348;28;20488;-67
2022/10/31 22:29:05;;;;;;;4.50;4.40;;;22.10;99.90;;;;;;5034229;28;20445;-66
2022/10/31 22:31:33;;;;;;;4.87;4.67;;;22.10;99.90;;;;;;5034273;28;20588;-66
2022/10/31 22:34:00;;;;;;;6.00;5.60;;;22.10;99.90;;;;;;5034328;28;20539;-67
2022/10/31 22:36:30;;;;;;;5.43;5.23;;;22.10;99.90;;;;;;5034121;28;20471;-68
2022/10/31 22:38:58;;;;;;;5.00;4.77;;;22.00;99.90;;;;;;5033989;28;20544;-67
2022/10/31 22:41:27;;;;;;;4.97;4.77;;;22.00;99.90;;;;;;5033733;28;20449;-66
2022/10/31 22:43:55;;;;;;;5.70;5.40;;;22.00;99.90;;;;;;5033878;28;20532;-66
2022/10/31 22:46:24;;;;;;;5.10;4.80;;;22.00;99.90;;;;;;5034161;28;20471;-68
2022/10/31 22:48:53;;;;;;;5.57;5.23;;;22.00;99.90;;;;;;5034032;28;20528;-66
2022/10/31 22:51:22;;;;;;;5.53;5.23;;;22.00;99.90;;;;;;5033486;28;20664;-67
2022/10/31 22:53:50;;;;;;;6.70;5.00;;;22.00;99.90;;;;;;5033894;28;20531;-67
2022/10/31 22:56:20;;;;;;;5.10;4.70;;;21.90;99.90;;;;;;5033991;28;20468;-67
2022/10/31 22:58:47;;;;;;;5.43;4.90;;;21.90;99.90;;;;;;5033858;28;20484;-67
2022/10/31 23:01:16;;;;;;;4.10;4.00;;;21.90;99.90;;;;;;5033662;28;20441;-68
2022/10/31 23:03:43;;;;;;;5.97;5.53;;;21.90;99.90;;;;;;5033530;28;20448;-67
2022/10/31 23:06:12;;;;;;;4.73;4.43;;;21.90;99.90;;;;;;5033666;28;20477;-66
2022/10/31 23:08:39;;;;;;;5.23;4.93;;;21.90;99.90;;;;;;5033788;28;20449;-67
2022/10/31 23:11:14;;;;;;;4.70;4.40;;;21.90;99.90;;;;;;5033335;28;20471;-67
2022/10/31 23:16:28;;;;;;;4.43;4.23;;;21.90;99.90;;;;;;5033524;28;20811;-67
2022/10/31 23:18:55;;;;;;;6.50;4.67;;;21.80;99.90;;;;;;5033454;28;20915;-67
2022/10/31 23:21:53;;;;;;;5.17;4.80;;;21.80;99.90;;;;;;5033246;28;20441;-66
2022/10/31 23:24:21;;;;;;;4.77;4.37;;;21.80;99.90;;;;;;5033304;28;20450;-66
2022/10/31 23:29:35;;;;;;;4.83;4.50;;;21.80;99.90;;;;;;5033396;28;20416;-68
2022/10/31 23:32:03;;;;;;;4.53;4.30;;;21.80;99.90;;;;;;5033096;28;20477;-67
2022/10/31 23:34:30;;;;;;;5.17;4.90;;;21.70;99.90;;;;;;5032094;28;20433;-67
2022/10/31 23:36:57;;;;;;;5.23;4.83;;;21.80;99.90;;;;;;5033220;28;20467;-67
2022/10/31 23:39:24;;;;;;;6.27;5.87;;;21.80;99.90;;;;;;5032918;28;20448;-67
2022/10/31 23:41:50;;;;;;;4.23;4.10;;;21.80;99.90;;;;;;5032807;28;20433;-67
2022/10/31 23:44:17;;;;;;;5.43;5.13;;;21.80;99.90;;;;;;5033055;28;20441;-67
2022/10/31 23:46:46;;;;;;;4.97;4.67;;;21.80;99.90;;;;;;5032818;28;20813;-68
2022/10/31 23:49:12;;;;;;;4.97;4.70;;;21.80;99.90;;;;;;5032450;28;20878;-67
2022/10/31 23:51:39;;;;;;;5.80;5.50;;;21.70;99.90;;;;;;5032562;28;20559;-68
2022/10/31 23:54:07;;;;;;;5.13;4.73;;;21.70;99.90;;;;;;5032769;28;20829;-68
2022/10/31 23:56:34;;;;;;;5.00;4.63;;;21.70;99.90;;;;;;5032731;28;20581;-67
2022/10/31 23:59:01;;;;;;;5.70;5.20;;;21.70;99.90;;;;;;5032446;28;20449;-67
